sensor_id;sensor_type;location;lat;lon;timestamp;pressure;altitude;pressure_sealevel;temperature;humidity
34073;BME280;20346;52.702;16.886;2023-03-04T00:02:19;100837.63;;;2.27;78.14
34073;BME280;20346;52.702;16.886;2023-03-04T00:05:06;100835.41;;;2.27;78.11
34073;BME280;20346;52.702;16.886;2023-03-04T00:07:52;100831.00;;;2.27;78.11
34073;BME280;20346;52.702;16.886;2023-03-04T00:10:38;100827.95;;;2.28;78.15
34073;BME280;20346;52.702;16.886;2023-03-04T00:13:24;100823.19;;;2.28;78.05
34073;BME280;20346;52.702;16.886;2023-03-04T00:16:10;100823.70;;;2.28;78.06
34073;BME280;20346;52.702;16.886;2023-03-04T00:18:56;100818.09;;;2.28;78.16
34073;BME280;20346;52.702;16.886;2023-03-04T00:21:42;100810.98;;;2.29;78.06
34073;BME280;20346;52.702;16.886;2023-03-04T00:24:29;100810.64;;;2.30;78.03
34073;BME280;20346;52.702;16.886;2023-03-04T00:27:16;100809.78;;;2.29;78.04
34073;BME280;20346;52.702;16.886;2023-03-04T00:30:02;100803.50;;;2.30;78.10
34073;BME280;20346;52.702;16.886;2023-03-04T00:32:49;100799.42;;;2.30;78.10
34073;BME280;20346;52.702;16.886;2023-03-04T00:35:35;100790.75;;;2.30;78.07
34073;BME280;20346;52.702;16.886;2023-03-04T00:38:21;100784.63;;;2.30;78.03
34073;BME280;20346;52.702;16.886;2023-03-04T00:41:07;100781.73;;;2.30;78.08
34073;BME280;20346;52.702;16.886;2023-03-04T00:43:53;100776.63;;;2.30;78.07
34073;BME280;20346;52.702;16.886;2023-03-04T00:46:39;100772.55;;;2.30;78.10
34073;BME280;20346;52.702;16.886;2023-03-04T00:49:25;100764.38;;;2.30;78.02
34073;BME280;20346;52.702;16.886;2023-03-04T00:52:11;100756.91;;;2.30;78.07
34073;BME280;20346;52.702;16.886;2023-03-04T00:54:58;100753.17;;;2.30;78.05
34073;BME280;20346;52.702;16.886;2023-03-04T00:57:44;100746.55;;;2.31;78.07
34073;BME280;20346;52.702;16.886;2023-03-04T01:00:30;100739.23;;;2.32;78.10
34073;BME280;20346;52.702;16.886;2023-03-04T01:03:16;100735.67;;;2.31;78.06
34073;BME280;20346;52.702;16.886;2023-03-04T01:06:02;100728.20;;;2.33;78.00
34073;BME280;20346;52.702;16.886;2023-03-04T01:08:48;100719.54;;;2.33;78.05
34073;BME280;20346;52.702;16.886;2023-03-04T01:11:34;100711.89;;;2.33;77.98
34073;BME280;20346;52.702;16.886;2023-03-04T01:14:21;100702.54;;;2.33;78.01
34073;BME280;20346;52.702;16.886;2023-03-04T01:17:07;100699.64;;;2.33;78.03
34073;BME280;20346;52.702;16.886;2023-03-04T01:19:53;100693.02;;;2.34;78.00
34073;BME280;20346;52.702;16.886;2023-03-04T01:22:39;100690.30;;;2.34;78.07
34073;BME280;20346;52.702;16.886;2023-03-04T01:25:25;100676.17;;;2.34;78.06
34073;BME280;20346;52.702;16.886;2023-03-04T01:28:11;100670.06;;;2.34;78.08
34073;BME280;20346;52.702;16.886;2023-03-04T01:30:57;100665.12;;;2.34;78.02
34073;BME280;20346;52.702;16.886;2023-03-04T01:33:43;100655.41;;;2.33;78.01
34073;BME280;20346;52.702;16.886;2023-03-04T01:36:29;100656.42;;;2.32;78.04
34073;BME280;20346;52.702;16.886;2023-03-04T01:39:15;100644.84;;;2.32;78.04
34073;BME280;20346;52.702;16.886;2023-03-04T01:42:02;100641.61;;;2.31;78.07
34073;BME280;20346;52.702;16.886;2023-03-04T01:44:48;100637.70;;;2.32;78.07
34073;BME280;20346;52.702;16.886;2023-03-04T01:47:35;100635.31;;;2.31;78.03
34073;BME280;20346;52.702;16.886;2023-03-04T01:50:26;100632.77;;;2.32;78.02
34073;BME280;20346;52.702;16.886;2023-03-04T01:53:19;100629.86;;;2.32;78.04
34073;BME280;20346;52.702;16.886;2023-03-04T01:59:31;100619.84;;;2.32;78.05
34073;BME280;20346;52.702;16.886;2023-03-04T02:02:10;100614.41;;;2.32;77.99
34073;BME280;20346;52.702;16.886;2023-03-04T02:04:57;100615.95;;;2.33;78.05
34073;BME280;20346;52.702;16.886;2023-03-04T02:07:43;100616.96;;;2.33;78.04
34073;BME280;20346;52.702;16.886;2023-03-04T02:10:29;100615.27;;;2.33;78.05
34073;BME280;20346;52.702;16.886;2023-03-04T02:13:16;100611.87;;;2.33;78.00
34073;BME280;20346;52.702;16.886;2023-03-04T02:16:02;100613.92;;;2.34;77.97
34073;BME280;20346;52.702;16.886;2023-03-04T02:18:48;100608.64;;;2.33;77.99
34073;BME280;20346;52.702;16.886;2023-03-04T02:21:34;100610.51;;;2.33;77.99
34073;BME280;20346;52.702;16.886;2023-03-04T02:27:26;100613.91;;;2.33;77.91
34073;BME280;20346;52.702;16.886;2023-03-04T02:30:13;100609.66;;;2.33;77.92
34073;BME280;20346;52.702;16.886;2023-03-04T02:32:59;100607.11;;;2.34;77.92
34073;BME280;20346;52.702;16.886;2023-03-04T02:35:45;100605.58;;;2.33;77.88
34073;BME280;20346;52.702;16.886;2023-03-04T02:38:32;100605.74;;;2.33;77.88
34073;BME280;20346;52.702;16.886;2023-03-04T02:41:20;100600.98;;;2.34;77.88
34073;BME280;20346;52.702;16.886;2023-03-04T02:44:14;100600.48;;;2.33;77.88
34073;BME280;20346;52.702;16.886;2023-03-04T02:47:02;100604.57;;;2.34;77.83
34073;BME280;20346;52.702;16.886;2023-03-04T02:49:48;100606.44;;;2.34;77.87
34073;BME280;20346;52.702;16.886;2023-03-04T02:52:34;100605.27;;;2.35;77.86
34073;BME280;20346;52.702;16.886;2023-03-04T02:55:21;100606.29;;;2.35;77.83
34073;BME280;20346;52.702;16.886;2023-03-04T02:58:07;100605.46;;;2.37;77.80
34073;BME280;20346;52.702;16.886;2023-03-04T03:00:54;100608.70;;;2.38;77.87
34073;BME280;20346;52.702;16.886;2023-03-04T03:03:40;100601.58;;;2.38;77.82
34073;BME280;20346;52.702;16.886;2023-03-04T03:06:26;100599.88;;;2.38;77.81
34073;BME280;20346;52.702;16.886;2023-03-04T03:09:12;100590.52;;;2.38;77.83
34073;BME280;20346;52.702;16.886;2023-03-04T03:11:58;100599.02;;;2.38;77.79
34073;BME280;20346;52.702;16.886;2023-03-04T03:14:44;100596.95;;;2.37;77.77
34073;BME280;20346;52.702;16.886;2023-03-04T03:17:30;100592.88;;;2.37;77.82
34073;BME280;20346;52.702;16.886;2023-03-04T03:20:16;100594.40;;;2.37;77.85
34073;BME280;20346;52.702;16.886;2023-03-04T03:23:03;100597.46;;;2.37;77.85
34073;BME280;20346;52.702;16.886;2023-03-04T03:25:49;100597.13;;;2.37;77.80
34073;BME280;20346;52.702;16.886;2023-03-04T03:28:35;100596.11;;;2.37;77.81
34073;BME280;20346;52.702;16.886;2023-03-04T03:31:21;100593.05;;;2.37;77.83
34073;BME280;20346;52.702;16.886;2023-03-04T03:34:07;100592.71;;;2.37;77.80
34073;BME280;20346;52.702;16.886;2023-03-04T03:36:53;100591.35;;;2.37;77.78
34073;BME280;20346;52.702;16.886;2023-03-04T03:39:39;100593.92;;;2.38;77.82
34073;BME280;20346;52.702;16.886;2023-03-04T03:42:26;100590.17;;;2.38;77.78
34073;BME280;20346;52.702;16.886;2023-03-04T03:45:12;100594.42;;;2.38;77.81
34073;BME280;20346;52.702;16.886;2023-03-04T03:47:58;100596.48;;;2.38;77.81
34073;BME280;20346;52.702;16.886;2023-03-04T03:50:44;100595.29;;;2.39;77.78
34073;BME280;20346;52.702;16.886;2023-03-04T03:53:30;100593.59;;;2.39;77.78
34073;BME280;20346;52.702;16.886;2023-03-04T03:56:16;100588.67;;;2.39;77.79
34073;BME280;20346;52.702;16.886;2023-03-04T03:59:02;100586.80;;;2.40;77.80
34073;BME280;20346;52.702;16.886;2023-03-04T04:01:48;100582.54;;;2.39;77.80
34073;BME280;20346;52.702;16.886;2023-03-04T04:04:35;100581.17;;;2.40;77.76
34073;BME280;20346;52.702;16.886;2023-03-04T04:07:21;100579.15;;;2.40;77.82
34073;BME280;20346;52.702;16.886;2023-03-04T04:10:07;100573.38;;;2.40;77.82
34073;BME280;20346;52.702;16.886;2023-03-04T04:12:53;100573.20;;;2.40;77.78
34073;BME280;20346;52.702;16.886;2023-03-04T04:15:40;100573.36;;;2.40;77.75
34073;BME280;20346;52.702;16.886;2023-03-04T04:18:26;100576.60;;;2.41;77.83
34073;BME280;20346;52.702;16.886;2023-03-04T04:21:12;100574.58;;;2.41;77.76
34073;BME280;20346;52.702;16.886;2023-03-04T04:23:59;100566.77;;;2.42;77.77
34073;BME280;20346;52.702;16.886;2023-03-04T04:26:45;100561.67;;;2.43;77.80
34073;BME280;20346;52.702;16.886;2023-03-04T04:29:31;100560.14;;;2.43;77.82
34073;BME280;20346;52.702;16.886;2023-03-04T04:32:17;100555.55;;;2.43;77.83
34073;BME280;20346;52.702;16.886;2023-03-04T04:35:03;100547.90;;;2.43;77.82
34073;BME280;20346;52.702;16.886;2023-03-04T04:37:50;100546.70;;;2.43;77.83
34073;BME280;20346;52.702;16.886;2023-03-04T04:40:36;100553.00;;;2.42;77.80
34073;BME280;20346;52.702;16.886;2023-03-04T04:43:22;100545.67;;;2.42;77.83
34073;BME280;20346;52.702;16.886;2023-03-04T04:46:08;100547.21;;;2.43;77.89
34073;BME280;20346;52.702;16.886;2023-03-04T04:48:55;100542.30;;;2.44;77.89
34073;BME280;20346;52.702;16.886;2023-03-04T04:51:41;100541.27;;;2.43;77.82
34073;BME280;20346;52.702;16.886;2023-03-04T04:54:27;100537.52;;;2.43;77.85
34073;BME280;20346;52.702;16.886;2023-03-04T04:57:13;100532.75;;;2.43;77.88
34073;BME280;20346;52.702;16.886;2023-03-04T04:59:59;100531.57;;;2.43;77.86
34073;BME280;20346;52.702;16.886;2023-03-04T05:02:45;100529.04;;;2.44;77.90
34073;BME280;20346;52.702;16.886;2023-03-04T05:05:31;100526.49;;;2.45;77.96
34073;BME280;20346;52.702;16.886;2023-03-04T05:08:17;100523.95;;;2.45;77.90
34073;BME280;20346;52.702;16.886;2023-03-04T05:11:04;100525.32;;;2.46;77.94
34073;BME280;20346;52.702;16.886;2023-03-04T05:13:50;100529.05;;;2.46;77.90
34073;BME280;20346;52.702;16.886;2023-03-04T05:16:37;100530.95;;;2.47;77.96
34073;BME280;20346;52.702;16.886;2023-03-04T05:19:23;100524.15;;;2.47;77.97
34073;BME280;20346;52.702;16.886;2023-03-04T05:22:09;100523.47;;;2.47;77.95
34073;BME280;20346;52.702;16.886;2023-03-04T05:24:55;100523.64;;;2.48;77.91
34073;BME280;20346;52.702;16.886;2023-03-04T05:27:42;100521.46;;;2.49;77.98
34073;BME280;20346;52.702;16.886;2023-03-04T05:30:28;100517.88;;;2.49;77.99
34073;BME280;20346;52.702;16.886;2023-03-04T05:33:15;100517.35;;;2.48;77.98
34073;BME280;20346;52.702;16.886;2023-03-04T05:36:01;100516.00;;;2.48;77.99
34073;BME280;20346;52.702;16.886;2023-03-04T05:38:47;100514.13;;;2.48;77.93
34073;BME280;20346;52.702;16.886;2023-03-04T05:41:34;100513.30;;;2.49;77.98
34073;BME280;20346;52.702;16.886;2023-03-04T05:44:20;100514.15;;;2.51;77.99
34073;BME280;20346;52.702;16.886;2023-03-04T05:47:06;100509.09;;;2.52;78.00
34073;BME280;20346;52.702;16.886;2023-03-04T05:49:52;100513.00;;;2.52;78.00
34073;BME280;20346;52.702;16.886;2023-03-04T05:52:39;100513.18;;;2.53;77.96
34073;BME280;20346;52.702;16.886;2023-03-04T05:55:25;100510.98;;;2.53;77.96
34073;BME280;20346;52.702;16.886;2023-03-04T05:58:14;100510.12;;;2.53;77.97
34073;BME280;20346;52.702;16.886;2023-03-04T06:01:01;100506.72;;;2.53;78.01
34073;BME280;20346;52.702;16.886;2023-03-04T06:03:47;100498.58;;;2.54;78.03
34073;BME280;20346;52.702;16.886;2023-03-04T06:06:33;100502.00;;;2.56;78.03
34073;BME280;20346;52.702;16.886;2023-03-04T06:09:19;100498.95;;;2.58;78.00
34073;BME280;20346;52.702;16.886;2023-03-04T06:12:06;100509.18;;;2.59;78.00
34073;BME280;20346;52.702;16.886;2023-03-04T06:14:52;100511.91;;;2.60;77.97
34073;BME280;20346;52.702;16.886;2023-03-04T06:17:38;100511.74;;;2.61;78.00
34073;BME280;20346;52.702;16.886;2023-03-04T06:20:25;100501.88;;;2.62;78.04
34073;BME280;20346;52.702;16.886;2023-03-04T06:23:11;100508.03;;;2.64;78.01
34073;BME280;20346;52.702;16.886;2023-03-04T06:25:58;100507.02;;;2.64;78.04
34073;BME280;20346;52.702;16.886;2023-03-04T06:28:44;100507.54;;;2.64;78.05
34073;BME280;20346;52.702;16.886;2023-03-04T06:31:30;100508.74;;;2.66;78.13
34073;BME280;20346;52.702;16.886;2023-03-04T06:34:16;100504.02;;;2.68;78.07
34073;BME280;20346;52.702;16.886;2023-03-04T06:37:03;100507.94;;;2.69;78.12
34073;BME280;20346;52.702;16.886;2023-03-04T06:39:49;100505.21;;;2.69;78.12
34073;BME280;20346;52.702;16.886;2023-03-04T06:42:35;100507.27;;;2.70;78.04
34073;BME280;20346;52.702;16.886;2023-03-04T06:45:21;100502.86;;;2.71;78.07
34073;BME280;20346;52.702;16.886;2023-03-04T06:48:07;100506.10;;;2.72;78.10
34073;BME280;20346;52.702;16.886;2023-03-04T06:50:53;100504.59;;;2.73;78.15
34073;BME280;20346;52.702;16.886;2023-03-04T06:53:40;100507.50;;;2.75;78.12
34073;BME280;20346;52.702;16.886;2023-03-04T06:56:26;100507.88;;;2.77;78.17
34073;BME280;20346;52.702;16.886;2023-03-04T06:59:12;100511.46;;;2.78;78.19
34073;BME280;20346;52.702;16.886;2023-03-04T07:01:58;100509.61;;;2.80;78.13
34073;BME280;20346;52.702;16.886;2023-03-04T07:04:44;100505.04;;;2.81;78.17
34073;BME280;20346;52.702;16.886;2023-03-04T07:07:30;100507.25;;;2.81;78.14
34073;BME280;20346;52.702;16.886;2023-03-04T07:10:17;100508.13;;;2.82;78.17
34073;BME280;20346;52.702;16.886;2023-03-04T07:13:03;100507.65;;;2.84;78.14
34073;BME280;20346;52.702;16.886;2023-03-04T07:15:49;100510.05;;;2.86;78.18
34073;BME280;20346;52.702;16.886;2023-03-04T07:18:36;100511.45;;;2.88;78.16
34073;BME280;20346;52.702;16.886;2023-03-04T07:21:22;100513.33;;;2.89;78.20
34073;BME280;20346;52.702;16.886;2023-03-04T07:24:08;100510.62;;;2.91;78.24
34073;BME280;20346;52.702;16.886;2023-03-04T07:26:55;100508.60;;;2.92;78.16
34073;BME280;20346;52.702;16.886;2023-03-04T07:29:41;100507.10;;;2.94;78.19
34073;BME280;20346;52.702;16.886;2023-03-04T07:32:27;100509.86;;;2.97;78.22
34073;BME280;20346;52.702;16.886;2023-03-04T07:35:12;100506.34;;;3.01;78.24
34073;BME280;20346;52.702;16.886;2023-03-04T07:37:58;100503.14;;;3.04;78.23
34073;BME280;20346;52.702;16.886;2023-03-04T07:40:44;100504.89;;;3.08;78.19
34073;BME280;20346;52.702;16.886;2023-03-04T07:43:30;100500.66;;;3.12;78.20
34073;BME280;20346;52.702;16.886;2023-03-04T07:46:17;100502.23;;;3.15;78.21
34073;BME280;20346;52.702;16.886;2023-03-04T07:49:03;100500.05;;;3.19;78.22
34073;BME280;20346;52.702;16.886;2023-03-04T07:51:49;100508.80;;;3.23;78.23
34073;BME280;20346;52.702;16.886;2023-03-04T07:54:35;100499.27;;;3.25;78.23
34073;BME280;20346;52.702;16.886;2023-03-04T07:57:21;100496.59;;;3.28;78.26
34073;BME280;20346;52.702;16.886;2023-03-04T08:00:07;100493.90;;;3.30;78.27
34073;BME280;20346;52.702;16.886;2023-03-04T08:02:53;100496.16;;;3.34;78.23
34073;BME280;20346;52.702;16.886;2023-03-04T08:05:39;100495.85;;;3.38;78.33
34073;BME280;20346;52.702;16.886;2023-03-04T08:08:25;100497.77;;;3.41;78.26
34073;BME280;20346;52.702;16.886;2023-03-04T08:11:12;100494.56;;;3.45;78.25
34073;BME280;20346;52.702;16.886;2023-03-04T08:13:59;100494.59;;;3.47;78.30
34073;BME280;20346;52.702;16.886;2023-03-04T08:16:45;100496.52;;;3.51;78.34
34073;BME280;20346;52.702;16.886;2023-03-04T08:19:31;100492.63;;;3.54;78.35
34073;BME280;20346;52.702;16.886;2023-03-04T08:22:17;100495.38;;;3.57;78.36
34073;BME280;20346;52.702;16.886;2023-03-04T08:25:03;100490.12;;;3.59;78.42
34073;BME280;20346;52.702;16.886;2023-03-04T08:27:49;100484.52;;;3.61;78.41
34073;BME280;20346;52.702;16.886;2023-03-04T08:30:36;100489.13;;;3.64;78.46
34073;BME280;20346;52.702;16.886;2023-03-04T08:33:22;100488.61;;;3.65;78.45
34073;BME280;20346;52.702;16.886;2023-03-04T08:36:08;100484.36;;;3.66;78.50
34073;BME280;20346;52.702;16.886;2023-03-04T08:38:55;100483.88;;;3.69;78.49
34073;BME280;20346;52.702;16.886;2023-03-04T08:41:41;100481.17;;;3.71;78.53
34073;BME280;20346;52.702;16.886;2023-03-04T08:44:28;100478.98;;;3.74;78.50
34073;BME280;20346;52.702;16.886;2023-03-04T08:47:14;100473.04;;;3.76;78.53
34073;BME280;20346;52.702;16.886;2023-03-04T08:50:00;100473.07;;;3.79;78.56
34073;BME280;20346;52.702;16.886;2023-03-04T08:52:46;100469.16;;;3.81;78.56
34073;BME280;20346;52.702;16.886;2023-03-04T08:55:32;100467.48;;;3.82;78.60
34073;BME280;20346;52.702;16.886;2023-03-04T08:58:18;100462.02;;;3.83;78.54
34073;BME280;20346;52.702;16.886;2023-03-04T09:01:06;100461.88;;;3.85;78.53
34073;BME280;20346;52.702;16.886;2023-03-04T09:03:52;100464.64;;;3.89;78.59
34073;BME280;20346;52.702;16.886;2023-03-04T09:06:38;100465.54;;;3.95;78.67
34073;BME280;20346;52.702;16.886;2023-03-04T09:09:24;100465.73;;;3.97;78.64
34073;BME280;20346;52.702;16.886;2023-03-04T09:12:11;100459.30;;;4.03;78.72
34073;BME280;20346;52.702;16.886;2023-03-04T09:14:57;100457.62;;;4.06;78.62
34073;BME280;20346;52.702;16.886;2023-03-04T09:17:43;100459.16;;;4.08;78.69
34073;BME280;20346;52.702;16.886;2023-03-04T09:20:31;100460.91;;;4.14;78.74
34073;BME280;20346;52.702;16.886;2023-03-04T09:23:17;100459.90;;;4.19;78.63
34073;BME280;20346;52.702;16.886;2023-03-04T09:26:23;100457.71;;;4.23;78.74
34073;BME280;20346;52.702;16.886;2023-03-04T09:29:09;100458.27;;;4.28;78.72
34073;BME280;20346;52.702;16.886;2023-03-04T09:31:55;100459.48;;;4.32;78.73
34073;BME280;20346;52.702;16.886;2023-03-04T09:34:41;100454.21;;;4.34;78.64
34073;BME280;20346;52.702;16.886;2023-03-04T09:37:28;100454.05;;;4.36;78.78
34073;BME280;20346;52.702;16.886;2023-03-04T09:40:22;100450.13;;;4.37;78.80
34073;BME280;20346;52.702;16.886;2023-03-04T09:43:11;100448.63;;;4.41;78.82
34073;BME280;20346;52.702;16.886;2023-03-04T09:45:59;100449.31;;;4.42;78.82
34073;BME280;20346;52.702;16.886;2023-03-04T09:48:47;100447.79;;;4.43;78.83
34073;BME280;20346;52.702;16.886;2023-03-04T10:01:16;100447.98;;;4.49;78.97
34073;BME280;20346;52.702;16.886;2023-03-04T10:04:17;100444.08;;;4.49;78.87
34073;BME280;20346;52.702;16.886;2023-03-04T10:07:16;100441.69;;;4.51;78.97
34073;BME280;20346;52.702;16.886;2023-03-04T10:10:09;100439.66;;;4.55;79.02
34073;BME280;20346;52.702;16.886;2023-03-04T10:12:58;100443.61;;;4.58;79.03
34073;BME280;20346;52.702;16.886;2023-03-04T10:15:47;100442.09;;;4.61;79.04
34073;BME280;20346;52.702;16.886;2023-03-04T10:18:37;100445.36;;;4.69;79.10
34073;BME280;20346;52.702;16.886;2023-03-04T10:21:29;100444.17;;;4.72;79.02
34073;BME280;20346;52.702;16.886;2023-03-04T10:24:21;100447.08;;;4.74;79.03
34073;BME280;20346;52.702;16.886;2023-03-04T10:27:09;100446.75;;;4.76;79.12
34073;BME280;20346;52.702;16.886;2023-03-04T10:29:58;100446.77;;;4.80;79.11
34073;BME280;20346;52.702;16.886;2023-03-04T10:32:45;100438.43;;;4.88;79.29
34073;BME280;20346;52.702;16.886;2023-03-04T10:35:32;100436.45;;;5.04;79.30
34073;BME280;20346;52.702;16.886;2023-03-04T10:38:21;100435.29;;;5.12;79.23
34073;BME280;20346;52.702;16.886;2023-03-04T10:41:21;100433.25;;;5.21;79.31
34073;BME280;20346;52.702;16.886;2023-03-04T10:47:16;100427.48;;;5.46;79.27
34073;BME280;20346;52.702;16.886;2023-03-04T10:50:03;100422.70;;;5.54;79.15
34073;BME280;20346;52.702;16.886;2023-03-04T10:52:49;100422.38;;;5.57;79.20
34073;BME280;20346;52.702;16.886;2023-03-04T10:55:43;100421.02;;;5.64;79.27
34073;BME280;20346;52.702;16.886;2023-03-04T10:58:30;100423.07;;;5.69;79.30
34073;BME280;20346;52.702;16.886;2023-03-04T11:01:16;100420.49;;;5.72;79.24
34073;BME280;20346;52.702;16.886;2023-03-04T11:04:19;100415.17;;;5.78;79.22
34073;BME280;20346;52.702;16.886;2023-03-04T11:07:08;100413.14;;;5.88;79.28
34073;BME280;20346;52.702;16.886;2023-03-04T11:09:56;100414.70;;;6.00;79.23
34073;BME280;20346;52.702;16.886;2023-03-04T11:16:04;100407.51;;;6.11;79.04
34073;BME280;20346;52.702;16.886;2023-03-04T11:19:13;100409.22;;;6.09;78.91
34073;BME280;20346;52.702;16.886;2023-03-04T11:22:01;100414.18;;;6.02;78.82
34073;BME280;20346;52.702;16.886;2023-03-04T11:25:16;100410.77;;;5.97;78.91
34073;BME280;20346;52.702;16.886;2023-03-04T11:27:55;100410.77;;;6.01;78.95
34073;BME280;20346;52.702;16.886;2023-03-04T11:30:43;100405.29;;;6.05;78.87
34073;BME280;20346;52.702;16.886;2023-03-04T11:33:35;100397.07;;;6.04;78.75
34073;BME280;20346;52.702;16.886;2023-03-04T11:36:42;100397.92;;;6.06;78.79
34073;BME280;20346;52.702;16.886;2023-03-04T11:39:35;100395.87;;;6.09;78.55
34073;BME280;20346;52.702;16.886;2023-03-04T11:45:16;100392.45;;;6.06;78.50
34073;BME280;20346;52.702;16.886;2023-03-04T12:03:49;100399.62;;;5.86;78.39
34073;BME280;20346;52.702;16.886;2023-03-04T12:09:32;100421.16;;;5.79;78.38
34073;BME280;20346;52.702;16.886;2023-03-04T12:24:40;100459.98;;;4.55;78.74
34073;BME280;20346;52.702;16.886;2023-03-04T12:33:55;100459.45;;;4.54;79.26
34073;BME280;20346;52.702;16.886;2023-03-04T12:39:40;100462.61;;;4.73;79.40
34073;BME280;20346;52.702;16.886;2023-03-04T12:49:10;100463.10;;;5.03;79.42
34073;BME280;20346;52.702;16.886;2023-03-04T12:55:13;100468.97;;;5.17;79.51
34073;BME280;20346;52.702;16.886;2023-03-04T12:58:00;100470.84;;;5.20;79.37
34073;BME280;20346;52.702;16.886;2023-03-04T13:03:56;100476.30;;;5.22;79.31
34073;BME280;20346;52.702;16.886;2023-03-04T13:12:26;100485.70;;;5.16;79.10
34073;BME280;20346;52.702;16.886;2023-03-04T13:18:01;100487.34;;;5.00;79.00
34073;BME280;20346;52.702;16.886;2023-03-04T13:20:47;100488.52;;;4.94;78.97
34073;BME280;20346;52.702;16.886;2023-03-04T13:23:50;100491.41;;;4.93;79.04
34073;BME280;20346;52.702;16.886;2023-03-04T13:26:36;100488.00;;;4.94;79.19
34073;BME280;20346;52.702;16.886;2023-03-04T13:32:36;100495.60;;;5.11;79.26
34073;BME280;20346;52.702;16.886;2023-03-04T13:41:46;100500.74;;;5.15;78.90
34073;BME280;20346;52.702;16.886;2023-03-04T13:47:33;100499.54;;;5.15;78.68
34073;BME280;20346;52.702;16.886;2023-03-04T13:50:27;100504.82;;;5.11;78.46
34073;BME280;20346;52.702;16.886;2023-03-04T13:59:54;100501.30;;;4.90;78.35
34073;BME280;20346;52.702;16.886;2023-03-04T14:03:11;100496.52;;;4.89;78.32
34073;BME280;20346;52.702;16.886;2023-03-04T14:09:08;100497.03;;;4.90;78.21
34073;BME280;20346;52.702;16.886;2023-03-04T14:12:01;100499.09;;;4.93;78.19
34073;BME280;20346;52.702;16.886;2023-03-04T14:14:49;100498.41;;;4.92;77.81
34073;BME280;20346;52.702;16.886;2023-03-04T14:17:36;100500.46;;;4.93;77.84
34073;BME280;20346;52.702;16.886;2023-03-04T14:20:24;100495.19;;;4.98;77.81
34073;BME280;20346;52.702;16.886;2023-03-04T14:23:22;100502.38;;;5.00;77.72
34073;BME280;20346;52.702;16.886;2023-03-04T14:26:16;100502.03;;;4.98;77.54
34073;BME280;20346;52.702;16.886;2023-03-04T14:29:17;100507.30;;;4.94;77.41
34073;BME280;20346;52.702;16.886;2023-03-04T14:32:04;100505.55;;;4.87;77.32
34073;BME280;20346;52.702;16.886;2023-03-04T14:34:50;100501.23;;;4.80;76.93
34073;BME280;20346;52.702;16.886;2023-03-04T14:37:44;100497.77;;;4.67;76.80
34073;BME280;20346;52.702;16.886;2023-03-04T14:40:47;100500.96;;;4.57;76.83
34073;BME280;20346;52.702;16.886;2023-03-04T14:43:38;100502.60;;;4.48;76.40
34073;BME280;20346;52.702;16.886;2023-03-04T14:46:27;100501.87;;;4.41;76.41
34073;BME280;20346;52.702;16.886;2023-03-04T14:49:15;100500.14;;;4.37;76.73
34073;BME280;20346;52.702;16.886;2023-03-04T14:52:01;100500.81;;;4.36;76.81
34073;BME280;20346;52.702;16.886;2023-03-04T14:54:57;100502.17;;;4.36;76.77
34073;BME280;20346;52.702;16.886;2023-03-04T14:57:48;100498.08;;;4.35;76.49
34073;BME280;20346;52.702;16.886;2023-03-04T15:00:36;100494.30;;;4.32;76.49
34073;BME280;20346;52.702;16.886;2023-03-04T15:06:46;100491.88;;;4.27;76.29
34073;BME280;20346;52.702;16.886;2023-03-04T15:09:32;100493.04;;;4.24;76.20
34073;BME280;20346;52.702;16.886;2023-03-04T15:12:26;100495.07;;;4.21;76.11
34073;BME280;20346;52.702;16.886;2023-03-04T15:18:34;100502.20;;;4.15;76.07
34073;BME280;20346;52.702;16.886;2023-03-04T15:24:26;100496.36;;;4.10;75.91
34073;BME280;20346;52.702;16.886;2023-03-04T15:27:13;100497.38;;;4.08;75.99
34073;BME280;20346;52.702;16.886;2023-03-04T15:29:59;100509.29;;;4.05;75.73
34073;BME280;20346;52.702;16.886;2023-03-04T15:32:47;100514.89;;;4.03;75.38
34073;BME280;20346;52.702;16.886;2023-03-04T15:35:33;100521.00;;;3.98;75.37
34073;BME280;20346;52.702;16.886;2023-03-04T15:38:19;100518.20;;;3.92;75.17
34073;BME280;20346;52.702;16.886;2023-03-04T15:41:07;100528.70;;;3.85;75.21
34073;BME280;20346;52.702;16.886;2023-03-04T15:43:54;100537.99;;;3.76;74.90
34073;BME280;20346;52.702;16.886;2023-03-04T15:46:40;100541.99;;;3.67;74.72
34073;BME280;20346;52.702;16.886;2023-03-04T15:49:27;100539.71;;;3.59;74.80
34073;BME280;20346;52.702;16.886;2023-03-04T15:52:16;100546.61;;;3.51;74.58
34073;BME280;20346;52.702;16.886;2023-03-04T15:55:04;100545.16;;;3.44;74.30
34073;BME280;20346;52.702;16.886;2023-03-04T15:57:51;100547.80;;;3.37;74.41
34073;BME280;20346;52.702;16.886;2023-03-04T16:00:39;100553.86;;;3.30;74.24
34073;BME280;20346;52.702;16.886;2023-03-04T16:03:25;100555.13;;;3.24;74.17
34073;BME280;20346;52.702;16.886;2023-03-04T16:06:11;100557.45;;;3.18;74.50
34073;BME280;20346;52.702;16.886;2023-03-04T16:08:58;100553.29;;;3.12;74.17
34073;BME280;20346;52.702;16.886;2023-03-04T16:11:44;100559.69;;;3.05;73.75
34073;BME280;20346;52.702;16.886;2023-03-04T16:14:32;100562.81;;;2.97;73.82
34073;BME280;20346;52.702;16.886;2023-03-04T16:17:18;100562.23;;;2.92;73.85
34073;BME280;20346;52.702;16.886;2023-03-04T16:20:05;100566.23;;;2.86;73.92
34073;BME280;20346;52.702;16.886;2023-03-04T16:22:52;100572.44;;;2.81;73.09
34073;BME280;20346;52.702;16.886;2023-03-04T16:25:46;100571.85;;;2.75;73.76
34073;BME280;20346;52.702;16.886;2023-03-04T16:28:34;100573.79;;;2.69;73.71
34073;BME280;20346;52.702;16.886;2023-03-04T16:31:20;100578.98;;;2.63;73.66
34073;BME280;20346;52.702;16.886;2023-03-04T16:34:06;100589.33;;;2.59;73.54
34073;BME280;20346;52.702;16.886;2023-03-04T16:36:54;100587.23;;;2.56;73.60